sensor_id;sensor_type;location;lat;lon;timestamp;temperature;humidity
53272;DHT22;39160;48.580;7.756;2024-03-06T00:01:28;10.70;99.90
53272;DHT22;39160;48.580;7.756;2024-03-06T00:06:18;10.60;99.90
53272;DHT22;39160;48.580;7.756;2024-03-06T00:11:09;10.70;99.90
53272;DHT22;39160;48.580;7.756;2024-03-06T00:16:00;10.60;99.90
53272;DHT22;39160;48.580;7.756;2024-03-06T00:20:50;10.60;99.90
53272;DHT22;39160;48.580;7.756;2024-03-06T00:25:41;10.60;99.90
53272;DHT22;39160;48.580;7.756;2024-03-06T00:30:31;10.70;99.90
53272;DHT22;39160;48.580;7.756;2024-03-06T00:35:22;10.50;99.90
53272;DHT22;39160;48.580;7.756;2024-03-06T00:40:13;10.60;99.90
53272;DHT22;39160;48.580;7.756;2024-03-06T00:45:04;10.60;99.90
53272;DHT22;39160;48.580;7.756;2024-03-06T00:49:55;10.50;99.90
53272;DHT22;39160;48.580;7.756;2024-03-06T00:54:45;10.50;99.90
53272;DHT22;39160;48.580;7.756;2024-03-06T00:59:36;10.40;99.90
53272;DHT22;39160;48.580;7.756;2024-03-06T01:04:26;10.40;99.90
53272;DHT22;39160;48.580;7.756;2024-03-06T01:09:17;10.40;99.90
53272;DHT22;39160;48.580;7.756;2024-03-06T01:14:08;10.50;99.90
53272;DHT22;39160;48.580;7.756;2024-03-06T01:18:58;10.50;99.90
53272;DHT22;39160;48.580;7.756;2024-03-06T01:23:49;10.50;99.90
53272;DHT22;39160;48.580;7.756;2024-03-06T01:28:39;10.50;99.90
53272;DHT22;39160;48.580;7.756;2024-03-06T01:33:30;10.50;99.90
53272;DHT22;39160;48.580;7.756;2024-03-06T01:38:21;10.40;99.90
53272;DHT22;39160;48.580;7.756;2024-03-06T01:43:23;10.40;99.90
53272;DHT22;39160;48.580;7.756;2024-03-06T01:48:15;10.40;99.90
53272;DHT22;39160;48.580;7.756;2024-03-06T01:53:06;10.40;99.90
53272;DHT22;39160;48.580;7.756;2024-03-06T01:57:56;10.40;99.90
53272;DHT22;39160;48.580;7.756;2024-03-06T02:02:47;10.40;99.90
53272;DHT22;39160;48.580;7.756;2024-03-06T02:07:39;10.30;99.90
53272;DHT22;39160;48.580;7.756;2024-03-06T02:12:32;10.30;99.90
53272;DHT22;39160;48.580;7.756;2024-03-06T02:17:23;10.30;99.90
53272;DHT22;39160;48.580;7.756;2024-03-06T02:22:16;10.30;99.90
53272;DHT22;39160;48.580;7.756;2024-03-06T02:27:06;10.30;99.90
53272;DHT22;39160;48.580;7.756;2024-03-06T02:31:57;10.30;99.90
53272;DHT22;39160;48.580;7.756;2024-03-06T02:36:48;10.20;99.90
53272;DHT22;39160;48.580;7.756;2024-03-06T02:41:39;10.20;99.90
53272;DHT22;39160;48.580;7.756;2024-03-06T02:46:29;10.20;99.90
53272;DHT22;39160;48.580;7.756;2024-03-06T02:51:20;10.20;99.90
53272;DHT22;39160;48.580;7.756;2024-03-06T02:56:20;10.20;99.90
53272;DHT22;39160;48.580;7.756;2024-03-06T03:01:11;10.20;99.90
53272;DHT22;39160;48.580;7.756;2024-03-06T03:06:01;10.20;99.90
53272;DHT22;39160;48.580;7.756;2024-03-06T03:10:53;10.10;99.90
53272;DHT22;39160;48.580;7.756;2024-03-06T03:15:43;10.10;99.90
53272;DHT22;39160;48.580;7.756;2024-03-06T03:20:34;10.10;99.90
53272;DHT22;39160;48.580;7.756;2024-03-06T03:25:26;10.10;99.90
53272;DHT22;39160;48.580;7.756;2024-03-06T03:30:17;10.10;99.90
53272;DHT22;39160;48.580;7.756;2024-03-06T03:35:10;10.00;99.90
53272;DHT22;39160;48.580;7.756;2024-03-06T03:40:01;10.00;99.90
53272;DHT22;39160;48.580;7.756;2024-03-06T03:44:53;10.00;99.90
53272;DHT22;39160;48.580;7.756;2024-03-06T03:49:43;10.00;99.90
53272;DHT22;39160;48.580;7.756;2024-03-06T03:54:34;10.00;99.90
53272;DHT22;39160;48.580;7.756;2024-03-06T03:59:25;10.00;99.90
53272;DHT22;39160;48.580;7.756;2024-03-06T04:04:16;10.00;99.90
53272;DHT22;39160;48.580;7.756;2024-03-06T04:09:07;9.90;99.90
53272;DHT22;39160;48.580;7.756;2024-03-06T04:14:00;9.90;99.90
53272;DHT22;39160;48.580;7.756;2024-03-06T04:18:51;9.90;99.90
53272;DHT22;39160;48.580;7.756;2024-03-06T04:23:43;9.90;99.90
53272;DHT22;39160;48.580;7.756;2024-03-06T04:28:34;10.00;99.90
53272;DHT22;39160;48.580;7.756;2024-03-06T04:33:24;9.90;99.90
53272;DHT22;39160;48.580;7.756;2024-03-06T04:38:15;10.00;99.90
53272;DHT22;39160;48.580;7.756;2024-03-06T04:43:06;9.90;99.90
53272;DHT22;39160;48.580;7.756;2024-03-06T04:47:57;9.90;99.90
53272;DHT22;39160;48.580;7.756;2024-03-06T04:52:48;9.90;99.90
53272;DHT22;39160;48.580;7.756;2024-03-06T04:57:39;9.90;99.90
53272;DHT22;39160;48.580;7.756;2024-03-06T05:02:34;9.90;99.90
53272;DHT22;39160;48.580;7.756;2024-03-06T05:07:28;9.90;99.90
53272;DHT22;39160;48.580;7.756;2024-03-06T05:12:19;9.90;99.90
53272;DHT22;39160;48.580;7.756;2024-03-06T05:17:10;9.80;99.90
53272;DHT22;39160;48.580;7.756;2024-03-06T05:22:01;9.80;99.90
53272;DHT22;39160;48.580;7.756;2024-03-06T05:26:51;9.80;99.90
53272;DHT22;39160;48.580;7.756;2024-03-06T05:31:42;9.80;99.90
53272;DHT22;39160;48.580;7.756;2024-03-06T05:36:33;9.70;99.90
53272;DHT22;39160;48.580;7.756;2024-03-06T05:41:23;9.70;99.90
53272;DHT22;39160;48.580;7.756;2024-03-06T05:46:14;9.70;99.90
53272;DHT22;39160;48.580;7.756;2024-03-06T05:51:06;9.70;99.90
53272;DHT22;39160;48.580;7.756;2024-03-06T05:55:57;9.70;99.90
53272;DHT22;39160;48.580;7.756;2024-03-06T06:00:48;9.70;99.90
53272;DHT22;39160;48.580;7.756;2024-03-06T06:05:39;9.70;99.90
53272;DHT22;39160;48.580;7.756;2024-03-06T06:10:30;9.70;99.90
53272;DHT22;39160;48.580;7.756;2024-03-06T06:15:21;9.70;99.90
53272;DHT22;39160;48.580;7.756;2024-03-06T06:20:11;9.60;99.90
53272;DHT22;39160;48.580;7.756;2024-03-06T06:25:05;9.70;99.90
53272;DHT22;39160;48.580;7.756;2024-03-06T06:29:57;9.70;99.90
53272;DHT22;39160;48.580;7.756;2024-03-06T06:34:48;9.70;99.90
53272;DHT22;39160;48.580;7.756;2024-03-06T06:39:39;9.80;99.90
53272;DHT22;39160;48.580;7.756;2024-03-06T06:44:30;9.80;99.90
53272;DHT22;39160;48.580;7.756;2024-03-06T06:49:20;9.70;99.90
53272;DHT22;39160;48.580;7.756;2024-03-06T06:54:12;9.80;99.90
53272;DHT22;39160;48.580;7.756;2024-03-06T06:59:02;9.80;99.90
53272;DHT22;39160;48.580;7.756;2024-03-06T07:03:53;9.80;99.90
53272;DHT22;39160;48.580;7.756;2024-03-06T07:08:43;9.80;99.90
53272;DHT22;39160;48.580;7.756;2024-03-06T07:13:34;9.80;99.90
53272;DHT22;39160;48.580;7.756;2024-03-06T07:18:25;9.80;99.90
53272;DHT22;39160;48.580;7.756;2024-03-06T07:23:15;9.80;99.90
53272;DHT22;39160;48.580;7.756;2024-03-06T07:28:06;9.80;99.90
53272;DHT22;39160;48.580;7.756;2024-03-06T07:32:57;9.80;99.90
53272;DHT22;39160;48.580;7.756;2024-03-06T07:37:47;9.80;99.90
53272;DHT22;39160;48.580;7.756;2024-03-06T07:42:38;9.80;99.90
53272;DHT22;39160;48.580;7.756;2024-03-06T07:47:29;9.80;99.90
53272;DHT22;39160;48.580;7.756;2024-03-06T07:52:19;9.80;99.90
53272;DHT22;39160;48.580;7.756;2024-03-06T07:57:43;9.90;99.90
53272;DHT22;39160;48.580;7.756;2024-03-06T08:02:36;9.90;99.90
53272;DHT22;39160;48.580;7.756;2024-03-06T08:07:29;9.90;99.90
53272;DHT22;39160;48.580;7.756;2024-03-06T08:12:20;9.90;99.90
53272;DHT22;39160;48.580;7.756;2024-03-06T08:17:11;9.90;99.90
53272;DHT22;39160;48.580;7.756;2024-03-06T08:22:02;9.90;99.90
53272;DHT22;39160;48.580;7.756;2024-03-06T08:26:53;9.80;99.90
53272;DHT22;39160;48.580;7.756;2024-03-06T08:31:47;9.80;99.90
53272;DHT22;39160;48.580;7.756;2024-03-06T08:36:41;9.90;99.90
53272;DHT22;39160;48.580;7.756;2024-03-06T08:41:32;9.90;99.90
53272;DHT22;39160;48.580;7.756;2024-03-06T08:46:22;9.90;99.90
53272;DHT22;39160;48.580;7.756;2024-03-06T08:51:14;9.90;99.90
53272;DHT22;39160;48.580;7.756;2024-03-06T08:56:05;9.90;99.90
53272;DHT22;39160;48.580;7.756;2024-03-06T09:00:56;9.90;99.90
53272;DHT22;39160;48.580;7.756;2024-03-06T09:05:49;10.00;99.90
53272;DHT22;39160;48.580;7.756;2024-03-06T09:10:39;10.00;99.90
53272;DHT22;39160;48.580;7.756;2024-03-06T09:15:31;10.00;99.90
53272;DHT22;39160;48.580;7.756;2024-03-06T09:20:21;10.10;99.90
53272;DHT22;39160;48.580;7.756;2024-03-06T09:25:14;10.20;99.90
53272;DHT22;39160;48.580;7.756;2024-03-06T09:30:06;10.10;99.90
53272;DHT22;39160;48.580;7.756;2024-03-06T09:34:57;10.10;99.90
53272;DHT22;39160;48.580;7.756;2024-03-06T09:39:49;10.10;99.90
53272;DHT22;39160;48.580;7.756;2024-03-06T09:44:40;10.10;99.90
53272;DHT22;39160;48.580;7.756;2024-03-06T09:49:31;10.10;99.90
53272;DHT22;39160;48.580;7.756;2024-03-06T09:54:22;10.20;99.90
53272;DHT22;39160;48.580;7.756;2024-03-06T09:59:15;10.30;99.90
53272;DHT22;39160;48.580;7.756;2024-03-06T10:04:20;10.30;99.90
53272;DHT22;39160;48.580;7.756;2024-03-06T10:09:11;10.30;99.90
53272;DHT22;39160;48.580;7.756;2024-03-06T10:14:02;10.40;99.90
53272;DHT22;39160;48.580;7.756;2024-03-06T10:18:53;10.40;99.90
53272;DHT22;39160;48.580;7.756;2024-03-06T10:23:47;10.40;99.90
53272;DHT22;39160;48.580;7.756;2024-03-06T10:28:37;10.50;99.90
53272;DHT22;39160;48.580;7.756;2024-03-06T10:33:29;10.60;99.90
53272;DHT22;39160;48.580;7.756;2024-03-06T10:38:20;10.60;99.90
53272;DHT22;39160;48.580;7.756;2024-03-06T10:43:11;10.70;99.90
53272;DHT22;39160;48.580;7.756;2024-03-06T10:48:04;10.70;99.90
53272;DHT22;39160;48.580;7.756;2024-03-06T10:52:56;10.70;99.90
53272;DHT22;39160;48.580;7.756;2024-03-06T10:57:48;10.80;99.90
53272;DHT22;39160;48.580;7.756;2024-03-06T11:02:39;10.70;99.90
53272;DHT22;39160;48.580;7.756;2024-03-06T11:07:31;10.70;99.90
53272;DHT22;39160;48.580;7.756;2024-03-06T11:12:35;10.70;99.90
53272;DHT22;39160;48.580;7.756;2024-03-06T11:17:32;10.70;99.90
53272;DHT22;39160;48.580;7.756;2024-03-06T11:28:05;10.80;99.90
53272;DHT22;39160;48.580;7.756;2024-03-06T11:32:59;10.80;99.90
53272;DHT22;39160;48.580;7.756;2024-03-06T11:37:54;10.90;99.90
53272;DHT22;39160;48.580;7.756;2024-03-06T11:42:48;10.90;99.90
53272;DHT22;39160;48.580;7.756;2024-03-06T11:47:59;11.00;99.90
53272;DHT22;39160;48.580;7.756;2024-03-06T11:52:51;11.10;99.90
53272;DHT22;39160;48.580;7.756;2024-03-06T11:57:42;11.10;99.90
53272;DHT22;39160;48.580;7.756;2024-03-06T12:02:32;11.10;99.90
53272;DHT22;39160;48.580;7.756;2024-03-06T12:07:23;11.10;99.90
53272;DHT22;39160;48.580;7.756;2024-03-06T12:12:14;11.10;99.90
53272;DHT22;39160;48.580;7.756;2024-03-06T12:17:04;11.10;99.90
53272;DHT22;39160;48.580;7.756;2024-03-06T12:21:58;11.10;99.90
53272;DHT22;39160;48.580;7.756;2024-03-06T12:27:02;11.00;99.90
53272;DHT22;39160;48.580;7.756;2024-03-06T12:31:53;11.20;99.90
53272;DHT22;39160;48.580;7.756;2024-03-06T12:36:44;11.30;99.90
53272;DHT22;39160;48.580;7.756;2024-03-06T12:41:36;11.30;99.90
53272;DHT22;39160;48.580;7.756;2024-03-06T12:46:28;11.40;99.90
53272;DHT22;39160;48.580;7.756;2024-03-06T12:51:20;11.40;99.90
53272;DHT22;39160;48.580;7.756;2024-03-06T12:56:11;11.40;99.90
53272;DHT22;39160;48.580;7.756;2024-03-06T13:01:02;11.40;99.90
53272;DHT22;39160;48.580;7.756;2024-03-06T13:05:52;11.40;99.90
53272;DHT22;39160;48.580;7.756;2024-03-06T13:10:43;11.40;99.90
53272;DHT22;39160;48.580;7.756;2024-03-06T13:15:35;11.30;99.90
53272;DHT22;39160;48.580;7.756;2024-03-06T13:20:27;11.20;99.90
53272;DHT22;39160;48.580;7.756;2024-03-06T13:25:17;11.20;99.90
53272;DHT22;39160;48.580;7.756;2024-03-06T13:30:10;11.30;99.90
53272;DHT22;39160;48.580;7.756;2024-03-06T13:35:00;11.20;99.90
53272;DHT22;39160;48.580;7.756;2024-03-06T13:39:51;11.30;99.90
53272;DHT22;39160;48.580;7.756;2024-03-06T13:44:43;11.30;99.90
53272;DHT22;39160;48.580;7.756;2024-03-06T13:49:36;11.40;99.90
53272;DHT22;39160;48.580;7.756;2024-03-06T13:54:26;11.30;99.90
53272;DHT22;39160;48.580;7.756;2024-03-06T13:59:17;11.30;99.90
53272;DHT22;39160;48.580;7.756;2024-03-06T14:04:08;11.30;99.90
53272;DHT22;39160;48.580;7.756;2024-03-06T14:08:58;11.30;99.90
53272;DHT22;39160;48.580;7.756;2024-03-06T14:13:49;11.30;99.90
53272;DHT22;39160;48.580;7.756;2024-03-06T14:18:39;11.20;99.90
53272;DHT22;39160;48.580;7.756;2024-03-06T14:23:30;11.30;99.90
53272;DHT22;39160;48.580;7.756;2024-03-06T14:28:22;11.30;99.90
53272;DHT22;39160;48.580;7.756;2024-03-06T14:33:13;11.20;99.90
53272;DHT22;39160;48.580;7.756;2024-03-06T14:38:04;11.10;99.90
53272;DHT22;39160;48.580;7.756;2024-03-06T14:42:55;11.10;99.90
53272;DHT22;39160;48.580;7.756;2024-03-06T14:47:46;11.10;99.90
53272;DHT22;39160;48.580;7.756;2024-03-06T14:52:36;11.10;99.90
53272;DHT22;39160;48.580;7.756;2024-03-06T14:57:27;11.10;99.90
53272;DHT22;39160;48.580;7.756;2024-03-06T15:02:18;11.10;99.90
53272;DHT22;39160;48.580;7.756;2024-03-06T15:07:08;11.20;99.90
53272;DHT22;39160;48.580;7.756;2024-03-06T15:12:00;11.20;99.90
53272;DHT22;39160;48.580;7.756;2024-03-06T15:16:53;11.20;99.90
53272;DHT22;39160;48.580;7.756;2024-03-06T15:21:44;11.20;99.90
53272;DHT22;39160;48.580;7.756;2024-03-06T15:26:34;11.10;99.90
53272;DHT22;39160;48.580;7.756;2024-03-06T15:31:26;11.10;99.90
53272;DHT22;39160;48.580;7.756;2024-03-06T15:36:20;11.10;99.90
53272;DHT22;39160;48.580;7.756;2024-03-06T15:41:14;11.00;99.90
53272;DHT22;39160;48.580;7.756;2024-03-06T15:46:04;10.90;99.90
53272;DHT22;39160;48.580;7.756;2024-03-06T15:50:55;11.00;99.90
53272;DHT22;39160;48.580;7.756;2024-03-06T15:55:46;10.90;99.90
53272;DHT22;39160;48.580;7.756;2024-03-06T16:00:37;10.90;99.90
53272;DHT22;39160;48.580;7.756;2024-03-06T16:05:28;11.00;99.90
53272;DHT22;39160;48.580;7.756;2024-03-06T16:10:18;10.90;99.90
53272;DHT22;39160;48.580;7.756;2024-03-06T16:15:10;10.90;99.90
53272;DHT22;39160;48.580;7.756;2024-03-06T16:20:01;10.80;99.90
53272;DHT22;39160;48.580;7.756;2024-03-06T16:24:55;10.80;99.90
53272;DHT22;39160;48.580;7.756;2024-03-06T16:29:47;10.80;99.90
53272;DHT22;39160;48.580;7.756;2024-03-06T16:34:38;10.90;99.90
53272;DHT22;39160;48.580;7.756;2024-03-06T16:39:36;10.80;99.90
53272;DHT22;39160;48.580;7.756;2024-03-06T16:44:27;10.70;99.90
53272;DHT22;39160;48.580;7.756;2024-03-06T16:49:17;10.60;99.90
53272;DHT22;39160;48.580;7.756;2024-03-06T16:54:08;10.70;99.90
53272;DHT22;39160;48.580;7.756;2024-03-06T16:58:59;10.60;99.90
53272;DHT22;39160;48.580;7.756;2024-03-06T17:03:50;10.60;99.90
53272;DHT22;39160;48.580;7.756;2024-03-06T17:08:41;10.50;99.90
53272;DHT22;39160;48.580;7.756;2024-03-06T17:13:32;10.50;99.90
53272;DHT22;39160;48.580;7.756;2024-03-06T17:18:23;10.50;99.90
53272;DHT22;39160;48.580;7.756;2024-03-06T17:23:13;10.60;99.90
53272;DHT22;39160;48.580;7.756;2024-03-06T17:28:04;10.60;99.90
53272;DHT22;39160;48.580;7.756;2024-03-06T17:32:55;10.50;99.90
53272;DHT22;39160;48.580;7.756;2024-03-06T17:37:47;10.40;99.90
53272;DHT22;39160;48.580;7.756;2024-03-06T17:42:40;10.40;99.90
53272;DHT22;39160;48.580;7.756;2024-03-06T17:47:33;10.40;99.90
53272;DHT22;39160;48.580;7.756;2024-03-06T17:52:24;10.40;99.90
53272;DHT22;39160;48.580;7.756;2024-03-06T17:57:15;10.40;99.90
53272;DHT22;39160;48.580;7.756;2024-03-06T18:02:06;10.30;99.90
53272;DHT22;39160;48.580;7.756;2024-03-06T18:06:57;10.30;99.90
53272;DHT22;39160;48.580;7.756;2024-03-06T18:11:48;10.30;99.90
53272;DHT22;39160;48.580;7.756;2024-03-06T18:16:41;10.30;99.90
53272;DHT22;39160;48.580;7.756;2024-03-06T18:21:31;10.30;99.90
53272;DHT22;39160;48.580;7.756;2024-03-06T18:26:22;10.30;99.90
53272;DHT22;39160;48.580;7.756;2024-03-06T18:31:13;10.30;99.90
53272;DHT22;39160;48.580;7.756;2024-03-06T18:36:07;10.30;99.90
53272;DHT22;39160;48.580;7.756;2024-03-06T18:40:58;10.20;99.90
53272;DHT22;39160;48.580;7.756;2024-03-06T18:45:50;10.20;99.90
53272;DHT22;39160;48.580;7.756;2024-03-06T18:50:41;10.20;99.90
53272;DHT22;39160;48.580;7.756;2024-03-06T18:55:32;10.10;99.90
53272;DHT22;39160;48.580;7.756;2024-03-06T19:00:23;10.20;99.90
53272;DHT22;39160;48.580;7.756;2024-03-06T19:05:13;10.20;99.90
53272;DHT22;39160;48.580;7.756;2024-03-06T19:10:05;10.10;99.90
53272;DHT22;39160;48.580;7.756;2024-03-06T19:14:56;10.10;99.90
53272;DHT22;39160;48.580;7.756;2024-03-06T19:19:47;10.10;99.90
53272;DHT22;39160;48.580;7.756;2024-03-06T19:24:38;10.20;99.90
53272;DHT22;39160;48.580;7.756;2024-03-06T19:29:28;10.10;99.90
53272;DHT22;39160;48.580;7.756;2024-03-06T19:34:19;10.10;99.90
53272;DHT22;39160;48.580;7.756;2024-03-06T19:39:10;10.10;99.90
53272;DHT22;39160;48.580;7.756;2024-03-06T19:44:00;10.10;99.90
53272;DHT22;39160;48.580;7.756;2024-03-06T19:48:51;10.10;99.90
53272;DHT22;39160;48.580;7.756;2024-03-06T19:53:42;10.10;99.90
53272;DHT22;39160;48.580;7.756;2024-03-06T19:58:35;10.10;99.90
53272;DHT22;39160;48.580;7.756;2024-03-06T20:03:26;10.10;99.90
53272;DHT22;39160;48.580;7.756;2024-03-06T20:08:16;10.10;99.90
53272;DHT22;39160;48.580;7.756;2024-03-06T20:13:07;10.10;99.90
53272;DHT22;39160;48.580;7.756;2024-03-06T20:17:58;10.10;99.90
53272;DHT22;39160;48.580;7.756;2024-03-06T20:22:48;10.00;99.90
53272;DHT22;39160;48.580;7.756;2024-03-06T20:27:46;10.00;99.90
53272;DHT22;39160;48.580;7.756;2024-03-06T20:32:36;10.10;99.90
53272;DHT22;39160;48.580;7.756;2024-03-06T20:37:33;10.10;99.90
53272;DHT22;39160;48.580;7.756;2024-03-06T20:42:24;10.10;99.90
53272;DHT22;39160;48.580;7.756;2024-03-06T20:47:15;10.10;99.90
53272;DHT22;39160;48.580;7.756;2024-03-06T20:52:06;10.10;99.90
53272;DHT22;39160;48.580;7.756;2024-03-06T20:56:57;10.00;99.90
53272;DHT22;39160;48.580;7.756;2024-03-06T21:01:47;10.00;99.90
53272;DHT22;39160;48.580;7.756;2024-03-06T21:06:40;10.00;99.90
53272;DHT22;39160;48.580;7.756;2024-03-06T21:11:34;10.00;99.90
53272;DHT22;39160;48.580;7.756;2024-03-06T21:16:24;10.10;99.90
53272;DHT22;39160;48.580;7.756;2024-03-06T21:21:15;10.00;99.90
53272;DHT22;39160;48.580;7.756;2024-03-06T21:26:14;10.00;99.90
53272;DHT22;39160;48.580;7.756;2024-03-06T21:31:14;10.00;99.90
53272;DHT22;39160;48.580;7.756;2024-03-06T21:36:05;10.00;99.90
53272;DHT22;39160;48.580;7.756;2024-03-06T21:40:57;10.00;99.90
53272;DHT22;39160;48.580;7.756;2024-03-06T21:45:48;10.00;99.90
53272;DHT22;39160;48.580;7.756;2024-03-06T21:50:38;10.00;99.90
53272;DHT22;39160;48.580;7.756;2024-03-06T21:55:29;10.00;99.90
53272;DHT22;39160;48.580;7.756;2024-03-06T22:00:20;10.00;99.90
53272;DHT22;39160;48.580;7.756;2024-03-06T22:05:11;10.00;99.90
53272;DHT22;39160;48.580;7.756;2024-03-06T22:10:02;10.00;99.90
53272;DHT22;39160;48.580;7.756;2024-03-06T22:14:58;10.00;99.90
53272;DHT22;39160;48.580;7.756;2024-03-06T22:19:48;10.00;99.90
53272;DHT22;39160;48.580;7.756;2024-03-06T22:24:39;10.00;99.90
53272;DHT22;39160;48.580;7.756;2024-03-06T22:29:30;10.00;99.90
53272;DHT22;39160;48.580;7.756;2024-03-06T22:34:21;10.00;99.90
53272;DHT22;39160;48.580;7.756;2024-03-06T22:39:12;10.00;99.90
53272;DHT22;39160;48.580;7.756;2024-03-06T22:44:03;10.00;99.90
53272;DHT22;39160;48.580;7.756;2024-03-06T22:48:55;10.00;99.90
53272;DHT22;39160;48.580;7.756;2024-03-06T22:53:46;9.90;99.90
53272;DHT22;39160;48.580;7.756;2024-03-06T22:58:38;10.00;99.90
53272;DHT22;39160;48.580;7.756;2024-03-06T23:03:28;10.00;99.90
53272;DHT22;39160;48.580;7.756;2024-03-06T23:08:19;9.90;99.90
53272;DHT22;39160;48.580;7.756;2024-03-06T23:13:13;9.90;99.90
53272;DHT22;39160;48.580;7.756;2024-03-06T23:18:09;9.90;99.90
53272;DHT22;39160;48.580;7.756;2024-03-06T23:23:06;9.80;99.90
53272;DHT22;39160;48.580;7.756;2024-03-06T23:27:56;9.80;99.90
53272;DHT22;39160;48.580;7.756;2024-03-06T23:32:49;9.80;99.90
53272;DHT22;39160;48.580;7.756;2024-03-06T23:37:40;9.80;99.90
53272;DHT22;39160;48.580;7.756;2024-03-06T23:42:31;9.80;99.90
53272;DHT22;39160;48.580;7.756;2024-03-06T23:47:22;9.90;99.90
53272;DHT22;39160;48.580;7.756;2024-03-06T23:52:13;9.90;99.90
53272;DHT22;39160;48.580;7.756;2024-03-06T23:57:07;9.90;99.90
